Time;durP1;ratioP1;P1;durP2;ratioP2;P2;SDS_P1;SDS_P2;PMS_P1;PMS_P2;Temp;Humidity;BMP_temperature;BMP_pressure;BME280_temperature;BME280_humidity;BME280_pressure;Samples;Min_cycle;Max_cycle;Signal;HPM_P1;HPM_P2
2023/02/22 00:01:07;;;;;;;4.67;2.75;;;;;;;1.20;84.57;99423.38;1674078;85;21107;-63
2023/02/22 00:03:33;;;;;;;3.45;2.47;;;;;;;1.18;84.33;99424.05;1645371;87;21552;-63
2023/02/22 00:06:04;;;;;;;4.10;2.42;;;;;;;1.16;84.13;99430.11;1673829;86;21127;-63
2023/02/22 00:08:36;;;;;;;4.05;2.30;;;;;;;1.15;84.05;99433.31;1645205;87;21194;-64
2023/02/22 00:11:07;;;;;;;3.60;2.37;;;;;;;1.16;83.84;99438.20;1674063;86;21167;-63
2023/02/22 00:13:37;;;;;;;4.90;2.45;;;;;;;1.16;83.61;99442.25;1645075;87;21199;-63
2023/02/22 00:16:07;;;;;;;4.37;2.35;;;;;;;1.15;83.38;99446.80;1673633;86;21210;-63
2023/02/22 00:18:37;;;;;;;3.55;2.45;;;;;;;1.17;83.11;99456.92;1645086;87;21579;-63
2023/02/22 00:21:10;;;;;;;4.25;2.40;;;;;;;1.17;82.83;99448.83;1673761;86;21130;-63
2023/02/22 00:23:46;;;;;;;3.47;2.10;;;;;;;1.16;82.13;99457.09;1645178;87;21147;-62
2023/02/22 00:26:18;;;;;;;3.95;2.60;;;;;;;1.11;81.97;99457.56;1673756;86;21538;-63
2023/02/22 00:28:49;;;;;;;4.50;2.58;;;;;;;1.09;81.77;99466.32;1648228;87;21172;-63
2023/02/22 00:31:19;;;;;;;5.37;2.67;;;;;;;1.09;81.60;99460.08;1676683;85;21114;-63
2023/02/22 00:33:51;;;;;;;4.25;2.90;;;;;;;1.10;81.65;99476.61;1687811;85;21185;-63
2023/02/22 00:36:23;;;;;;;3.83;2.70;;;;;;;1.11;81.57;99483.19;1651457;87;21193;-63
2023/02/22 00:38:52;;;;;;;5.17;2.42;;;;;;;1.12;81.41;99489.44;1719503;83;21179;-63
2023/02/22 00:41:21;;;;;;;4.00;2.22;;;;;;;1.13;81.35;99495.17;1712554;84;21179;-62
2023/02/22 00:43:51;;;;;;;3.70;2.27;;;;;;;1.11;81.07;99503.42;1712377;84;21155;-63
2023/02/22 00:46:21;;;;;;;4.92;2.70;;;;;;;1.09;80.61;99500.55;1712564;84;21140;-63
2023/02/22 00:48:50;;;;;;;3.65;2.50;;;;;;;1.08;80.59;99506.94;1712751;84;21199;-62
2023/02/22 00:51:20;;;;;;;5.22;2.65;;;;;;;1.10;80.60;99514.38;1712735;84;21130;-62
2023/02/22 00:53:51;;;;;;;5.53;2.60;;;;;;;1.09;80.56;99512.68;1712672;84;21177;-63
2023/02/22 00:56:20;;;;;;;5.58;2.77;;;;;;;1.09;80.64;99525.66;1712437;84;21217;-60
2023/02/22 00:58:49;;;;;;;5.05;2.67;;;;;;;1.08;80.27;99531.22;1712559;84;21182;-62
2023/02/22 01:01:19;;;;;;;4.85;2.47;;;;;;;1.05;80.12;99538.28;1712431;84;21167;-62
2023/02/22 01:03:48;;;;;;;4.53;2.47;;;;;;;1.02;79.58;99548.03;1712586;84;21115;-63
2023/02/22 01:06:21;;;;;;;4.50;2.62;;;;;;;0.96;78.15;99550.86;1712594;84;21175;-63
2023/02/22 01:08:52;;;;;;;4.20;2.50;;;;;;;0.91;77.50;99553.18;1712658;84;21158;-62
2023/02/22 01:11:21;;;;;;;4.87;2.72;;;;;;;0.88;76.95;99554.84;1712624;84;21186;-60
2023/02/22 01:13:52;;;;;;;5.97;3.00;;;;;;;0.86;76.38;99564.44;1712538;84;21162;-63
2023/02/22 01:16:22;;;;;;;4.92;2.65;;;;;;;0.86;75.95;99567.64;1712529;84;21146;-63
2023/02/22 01:18:53;;;;;;;4.58;2.47;;;;;;;0.85;75.87;99572.69;1712381;84;21115;-62
2023/02/22 01:21:22;;;;;;;5.45;3.35;;;;;;;0.81;75.52;99577.54;1712671;84;21171;-63
2023/02/22 01:23:51;;;;;;;6.00;3.08;;;;;;;0.79;75.13;99580.05;1712659;84;21187;-63
2023/02/22 01:26:21;;;;;;;5.12;2.50;;;;;;;0.79;75.12;99578.70;1712506;84;21648;-63
2023/02/22 01:28:50;;;;;;;5.97;3.05;;;;;;;0.77;74.93;99582.05;1712343;84;21191;-63
2023/02/22 01:31:19;;;;;;;5.87;3.10;;;;;;;0.72;74.97;99588.41;1701049;84;21190;-62
2023/02/22 01:33:50;;;;;;;7.35;3.12;;;;;;;0.73;75.00;99596.84;1676343;85;21124;-62
2023/02/22 01:36:21;;;;;;;4.78;2.95;;;;;;;0.73;74.95;99593.64;1676054;85;21597;-62
2023/02/22 01:38:50;;;;;;;6.85;3.55;;;;;;;0.74;75.04;99595.84;1676954;85;21178;-63
2023/02/22 01:41:18;;;;;;;5.55;3.20;;;;;;;0.76;75.24;99601.42;1676344;85;21175;-62
2023/02/22 01:43:47;;;;;;;7.30;3.17;;;;;;;0.76;75.17;99602.77;1676564;84;21123;-62
2023/02/22 01:46:24;;;;;;;6.17;3.20;;;;;;;0.76;75.12;99610.02;1676462;85;21170;-61
2023/02/22 01:48:59;;;;;;;7.25;3.85;;;;;;;0.74;74.88;99611.52;1676463;85;21126;-61
2023/02/22 01:51:36;;;;;;;6.67;3.42;;;;;;;0.75;75.01;99614.56;1676638;85;21130;-63
2023/02/22 01:54:16;;;;;;;6.40;3.45;;;;;;;0.71;75.09;99617.72;1676864;85;21138;-62
2023/02/22 01:56:53;;;;;;;7.33;3.60;;;;;;;0.72;75.25;99625.66;1676585;85;21155;-63
2023/02/22 01:59:22;;;;;;;;;;;;;;;0.74;75.40;99631.73;1678440;85;21558;-61
2023/02/22 02:01:51;;;;;;;5.60;2.95;;;;;;;0.74;75.61;99636.28;1676182;85;20470;-62
2023/02/22 02:04:24;;;;;;;6.30;3.50;;;;;;;0.71;75.08;99641.98;1679363;85;21131;-62
2023/02/22 02:06:55;;;;;;;5.85;2.52;;;;;;;0.67;74.86;99649.53;1676599;85;21167;-62
2023/02/22 02:09:36;;;;;;;4.40;2.60;;;;;;;0.64;74.78;99648.45;1676303;84;21167;-64
2023/02/22 02:12:07;;;;;;;4.90;2.70;;;;;;;0.64;74.40;99661.92;1655736;84;21131;-61
2023/02/22 02:14:40;;;;;;;4.58;2.52;;;;;;;0.63;74.06;99667.82;1657320;85;21115;-62
2023/02/22 02:17:12;;;;;;;4.22;2.58;;;;;;;0.62;73.99;99667.97;1676777;85;21138;-62
2023/02/22 02:19:52;;;;;;;6.10;2.85;;;;;;;0.62;73.38;99672.02;1676335;85;21155;-62
2023/02/22 02:22:41;;;;;;;5.22;2.77;;;;;;;0.60;73.01;99670.82;1677567;85;21218;-63
2023/02/22 02:25:46;;;;;;;4.60;2.50;;;;;;;0.62;72.97;99679.60;1678037;85;21123;-63
2023/02/22 02:28:54;;;;;;;5.35;2.77;;;;;;;0.64;72.71;99683.49;1670047;84;21126;-62
2023/02/22 02:32:06;;;;;;;4.50;2.55;;;;;;;0.63;71.88;99702.02;1677231;84;21240;-61
2023/02/22 02:34:48;;;;;;;4.83;2.80;;;;;;;0.56;70.03;99700.92;1676353;85;21580;-62
2023/02/22 02:37:44;;;;;;;5.90;2.98;;;;;;;0.52;70.31;99694.14;1676593;84;21734;-62
2023/02/22 02:40:46;;;;;;;5.03;2.80;;;;;;;0.52;70.37;99702.23;1676151;85;21556;-62
2023/02/22 02:43:35;;;;;;;4.53;2.37;;;;;;;0.53;70.30;99709.31;1676448;85;21558;-62
2023/02/22 02:46:13;;;;;;;4.20;2.50;;;;;;;0.50;69.75;99711.81;1676519;84;21147;-61
2023/02/22 02:48:55;;;;;;;4.75;2.60;;;;;;;0.51;69.94;99718.89;1676323;84;21103;-62
2023/02/22 02:51:28;;;;;;;5.33;2.77;;;;;;;0.52;69.92;99724.63;1684565;85;21589;-61
2023/02/22 02:53:59;;;;;;;4.72;2.58;;;;;;;0.54;69.76;99723.14;1676909;85;21130;-61
2023/02/22 02:56:30;;;;;;;4.78;2.65;;;;;;;0.56;69.81;99738.66;1676428;85;21206;-63
2023/02/22 02:58:58;;;;;;;5.58;2.60;;;;;;;0.56;69.69;99735.96;1659260;85;21123;-62
2023/02/22 03:01:34;;;;;;;4.70;2.77;;;;;;;0.57;69.47;99745.75;1676515;84;21538;-61
2023/02/22 03:04:14;;;;;;;4.50;2.60;;;;;;;0.56;69.07;99748.09;1675834;85;21182;-62
2023/02/22 03:07:16;;;;;;;5.05;2.40;;;;;;;0.51;68.85;99753.08;1672640;85;21135;-62
2023/02/22 03:10:23;;;;;;;4.45;2.60;;;;;;;0.50;68.66;99754.08;1676170;85;21159;-61
2023/02/22 03:13:16;;;;;;;4.40;2.33;;;;;;;0.48;68.17;99765.51;1676530;85;21127;-62
2023/02/22 03:16:03;;;;;;;4.78;2.58;;;;;;;0.47;68.12;99773.24;1677038;85;21615;-63
2023/02/22 03:19:04;;;;;;;3.40;2.10;;;;;;;0.45;67.26;99777.94;1676582;84;21174;-64
2023/02/22 03:22:03;;;;;;;5.25;2.65;;;;;;;0.44;67.35;99780.27;1664782;85;21166;-62
2023/02/22 03:25:07;;;;;;;4.00;2.35;;;;;;;0.47;67.70;99793.45;1673456;85;21543;-62
2023/02/22 03:27:55;;;;;;;4.33;2.35;;;;;;;0.51;67.83;99789.47;1683007;85;21167;-63
2023/02/22 03:30:27;;;;;;;5.05;2.90;;;;;;;0.48;67.20;99785.22;1676101;85;21134;-61
2023/02/22 03:33:01;;;;;;;4.10;2.33;;;;;;;0.45;67.20;99789.56;1700718;84;21162;-62
2023/02/22 03:35:33;;;;;;;4.20;2.40;;;;;;;0.45;67.44;99798.99;1712687;84;21158;-61
2023/02/22 03:38:04;;;;;;;4.58;2.60;;;;;;;0.45;67.06;99796.30;1712309;84;21143;-63
2023/02/22 03:40:37;;;;;;;3.40;2.30;;;;;;;0.44;66.86;99799.14;1712579;84;21119;-62
2023/02/22 03:43:16;;;;;;;4.78;2.50;;;;;;;0.43;66.55;99800.98;1712332;84;21628;-63
2023/02/22 03:45:45;;;;;;;3.72;2.17;;;;;;;0.43;66.35;99805.53;1712452;84;21559;-63
2023/02/22 03:48:27;;;;;;;3.27;2.20;;;;;;;0.46;66.49;99816.01;1712991;84;21179;-63
2023/02/22 03:50:57;;;;;;;4.08;2.40;;;;;;;0.47;66.56;99819.06;1702116;84;21138;-61
2023/02/22 03:53:26;;;;;;;4.85;2.65;;;;;;;0.49;66.43;99830.54;1714457;84;21615;-62
2023/02/22 03:59:53;;;;;;;5.08;2.83;;;;;;;0.41;66.51;99840.70;1848054;77;22560;-62
2023/02/22 04:02:22;;;;;;;6.83;3.45;;;;;;;0.31;67.24;99851.52;1820929;79;21199;-62
2023/02/22 04:04:52;;;;;;;7.35;3.22;;;;;;;0.30;68.06;99848.96;1753918;82;21546;-62
2023/02/22 04:07:21;;;;;;;5.70;3.30;;;;;;;0.27;68.77;99853.30;1754236;82;21170;-62
2023/02/22 04:09:52;;;;;;;6.70;3.67;;;;;;;0.25;69.48;99854.79;1753997;81;21607;-62
2023/02/22 04:12:21;;;;;;;6.62;3.35;;;;;;;0.22;70.02;99863.16;1754028;82;21534;-62
2023/02/22 04:14:59;;;;;;;7.60;3.80;;;;;;;0.17;70.38;99861.89;1753871;82;21115;-62
2023/02/22 04:17:29;;;;;;;6.03;3.20;;;;;;;0.16;70.58;99857.00;1753951;82;21574;-62
2023/02/22 04:20:00;;;;;;;7.33;3.42;;;;;;;0.16;70.70;99863.73;1753908;82;21628;-63
2023/02/22 04:22:33;;;;;;;6.55;3.60;;;;;;;0.15;70.91;99873.31;1753246;82;21526;-62
2023/02/22 04:25:02;;;;;;;5.92;3.30;;;;;;;0.13;71.02;99877.99;1753527;82;21199;-62
2023/02/22 04:27:32;;;;;;;5.40;3.20;;;;;;;0.14;70.98;99879.20;1725260;82;21110;-62
2023/02/22 04:30:01;;;;;;;5.20;2.95;;;;;;;0.12;70.90;99893.30;1753861;82;21114;-62
2023/02/22 04:32:32;;;;;;;7.28;3.45;;;;;;;0.05;70.34;99896.71;1754021;82;21562;-63
2023/02/22 04:35:00;;;;;;;6.85;3.72;;;;;;;0.01;70.49;99898.84;1754252;82;21099;-62
2023/02/22 04:37:33;;;;;;;7.90;3.70;;;;;;;-0.02;70.58;99896.41;1753967;82;21161;-61
2023/02/22 04:40:08;;;;;;;5.60;3.05;;;;;;;-0.03;70.66;99896.90;1754051;82;21133;-62
2023/02/22 04:42:37;;;;;;;5.12;2.80;;;;;;;-0.02;70.45;99899.09;1753984;82;21127;-63
2023/02/22 04:45:08;;;;;;;6.17;3.25;;;;;;;-0.05;70.26;99903.42;1754285;81;21162;-63
2023/02/22 04:47:37;;;;;;;5.60;2.67;;;;;;;-0.04;70.04;99910.50;1754174;82;21131;-62
2023/02/22 04:50:07;;;;;;;5.60;3.22;;;;;;;-0.06;69.67;99918.72;1753971;82;21158;-64
2023/02/22 04:52:36;;;;;;;5.85;3.22;;;;;;;-0.08;69.44;99931.48;1754288;82;21150;-62
2023/02/22 04:55:06;;;;;;;6.03;3.47;;;;;;;-0.07;69.03;99933.67;1754171;82;21573;-62
2023/02/22 04:57:38;;;;;;;6.10;3.12;;;;;;;-0.06;68.57;99934.03;1754065;82;21183;-63
2023/02/22 05:00:10;;;;;;;4.92;2.90;;;;;;;-0.08;68.21;99936.86;1738314;82;21123;-62
2023/02/22 05:02:38;;;;;;;5.17;3.02;;;;;;;-0.10;67.63;99944.23;1784272;79;21131;-64
2023/02/22 05:05:08;;;;;;;6.28;3.30;;;;;;;-0.11;67.62;99952.45;1806701;79;21190;-61
2023/02/22 05:07:37;;;;;;;5.85;3.10;;;;;;;-0.11;67.60;99947.91;1738088;82;21555;-62
2023/02/22 05:10:06;;;;;;;5.90;3.10;;;;;;;-0.09;67.73;99954.51;1806358;79;21542;-63
2023/02/22 05:12:35;;;;;;;5.53;3.05;;;;;;;-0.11;67.28;99953.30;1737763;82;21131;-63
2023/02/22 05:15:05;;;;;;;7.05;3.27;;;;;;;-0.11;67.43;99959.19;1806042;79;21163;-64
2023/02/22 05:17:35;;;;;;;5.67;3.00;;;;;;;-0.10;67.36;99968.96;1737774;82;21095;-62
2023/02/22 05:20:14;;;;;;;6.62;3.72;;;;;;;-0.10;67.52;99971.66;1806182;79;21147;-62
2023/02/22 05:22:43;;;;;;;6.33;2.90;;;;;;;-0.11;67.57;99981.58;1804990;79;21131;-62
2023/02/22 05:25:14;;;;;;;6.90;3.67;;;;;;;-0.11;67.62;99983.41;1737586;82;21147;-63
2023/02/22 05:27:43;;;;;;;5.75;2.80;;;;;;;-0.12;67.56;99993.33;1806392;79;21150;-63
2023/02/22 05:30:12;;;;;;;5.58;2.95;;;;;;;-0.15;67.35;99990.92;1737879;82;21131;-62
2023/02/22 05:32:42;;;;;;;5.45;2.80;;;;;;;-0.15;67.61;99996.80;1806329;79;21130;-62
2023/02/22 05:35:10;;;;;;;5.15;3.00;;;;;;;-0.16;67.81;100001.83;1737782;82;21202;-63
2023/02/22 05:37:39;;;;;;;6.78;3.25;;;;;;;-0.15;68.04;100008.42;1806175;79;21126;-63
2023/02/22 05:40:14;;;;;;;6.28;3.20;;;;;;;-0.17;68.07;100020.32;1737550;82;21586;-61
2023/02/22 05:42:44;;;;;;;6.28;3.25;;;;;;;-0.20;68.42;100027.33;1806522;79;21115;-62
2023/02/22 05:45:16;;;;;;;9.93;3.37;;;;;;;-0.26;68.38;100026.53;1737516;82;21119;-63
2023/02/22 05:47:45;;;;;;;5.50;2.58;;;;;;;-0.29;68.60;100038.92;1806148;79;21162;-63
2023/02/22 05:50:18;;;;;;;6.78;3.27;;;;;;;-0.29;68.79;100047.84;1737534;82;21111;-63
2023/02/22 05:52:48;;;;;;;7.10;3.40;;;;;;;-0.29;68.61;100055.07;1806546;79;21142;-62
2023/02/22 05:55:19;;;;;;;7.08;3.90;;;;;;;-0.28;68.68;100053.59;1737904;82;21179;-63
2023/02/22 05:57:48;;;;;;;6.45;3.50;;;;;;;-0.27;68.84;100055.78;1806311;79;21160;-62
2023/02/22 06:00:25;;;;;;;7.25;3.87;;;;;;;-0.24;69.15;100063.59;1737506;82;21163;-63
2023/02/22 06:03:04;;;;;;;11.83;4.05;;;;;;;-0.27;69.40;100063.37;1806253;79;21198;-62
2023/02/22 06:05:34;;;;;;;7.58;3.83;;;;;;;-0.27;69.64;100065.20;1737699;82;21127;-62
2023/02/22 06:08:05;;;;;;;8.20;4.12;;;;;;;-0.26;70.06;100070.95;1806137;79;21527;-63
2023/02/22 06:10:35;;;;;;;10.65;4.40;;;;;;;-0.29;70.39;100076.61;1737752;82;21253;-64
2023/02/22 06:13:05;;;;;;;9.03;4.50;;;;;;;-0.32;70.74;100080.42;1806225;79;21737;-64
2023/02/22 06:15:35;;;;;;;8.10;4.03;;;;;;;-0.34;71.02;100087.28;1806501;79;21209;-63
2023/02/22 06:18:04;;;;;;;9.13;4.05;;;;;;;-0.39;71.29;100083.30;1737820;82;21170;-62
2023/02/22 06:20:34;;;;;;;8.50;4.17;;;;;;;-0.41;71.66;100098.73;1806156;79;21102;-63
2023/02/22 06:23:03;;;;;;;9.80;4.67;;;;;;;-0.43;72.05;100105.59;1737556;82;21135;-63
2023/02/22 06:25:33;;;;;;;8.15;4.47;;;;;;;-0.44;72.30;100101.69;1806173;79;21076;-64
2023/02/22 06:28:03;;;;;;;7.28;4.22;;;;;;;-0.41;72.52;100109.00;1737724;82;21147;-64
2023/02/22 06:30:31;;;;;;;8.68;4.30;;;;;;;-0.40;72.50;100110.70;1805784;79;21139;-64
2023/02/22 06:33:02;;;;;;;8.28;4.55;;;;;;;-0.39;72.59;100115.59;1806355;79;21100;-63
2023/02/22 06:35:32;;;;;;;9.98;4.62;;;;;;;-0.36;72.82;100115.33;1737414;82;21139;-62
2023/02/22 06:38:01;;;;;;;9.05;4.17;;;;;;;-0.40;73.04;100122.82;1805789;79;21158;-63
2023/02/22 06:40:30;;;;;;;11.93;5.10;;;;;;;-0.44;73.42;100121.38;1737284;82;21183;-62
2023/02/22 06:43:00;;;;;;;9.50;4.28;;;;;;;-0.45;73.77;100131.79;1806007;79;21574;-61
2023/02/22 06:45:31;;;;;;;7.70;4.10;;;;;;;-0.43;73.89;100132.51;1737552;82;21559;-62
2023/02/22 06:48:03;;;;;;;8.65;4.58;;;;;;;-0.43;73.91;100133.85;1806194;79;21217;-64
2023/02/22 06:50:33;;;;;;;9.63;4.90;;;;;;;-0.46;73.91;100137.30;1737583;82;21159;-63
2023/02/22 06:53:04;;;;;;;7.85;3.92;;;;;;;-0.44;74.18;100142.06;1806013;79;21118;-62
2023/02/22 06:55:33;;;;;;;9.53;4.70;;;;;;;-0.42;74.36;100146.33;1737469;82;21150;-63
2023/02/22 06:58:04;;;;;;;8.80;4.50;;;;;;;-0.40;74.30;100147.04;1806264;79;21139;-64
2023/02/22 07:00:37;;;;;;;11.50;5.97;;;;;;;-0.43;74.15;100156.73;1736037;82;21150;-63
2023/02/22 07:03:10;;;;;;;8.78;4.30;;;;;;;-0.45;74.14;100160.54;1803779;79;21135;-63
2023/02/22 07:05:41;;;;;;;10.08;4.78;;;;;;;-0.47;74.03;100160.67;1737499;82;21189;-63
2023/02/22 07:08:10;;;;;;;10.00;4.97;;;;;;;-0.46;74.21;100170.94;1806100;79;21139;-64
2023/02/22 07:10:39;;;;;;;10.65;5.15;;;;;;;-0.46;73.94;100168.25;1737493;82;21131;-64
2023/02/22 07:13:08;;;;;;;10.58;5.20;;;;;;;-0.48;73.67;100175.61;1805956;79;21103;-63
2023/02/22 07:15:39;;;;;;;9.48;4.78;;;;;;;-0.47;73.85;100177.31;1737327;82;21181;-64
2023/02/22 07:18:08;;;;;;;8.70;4.83;;;;;;;-0.45;73.92;100176.19;1805926;79;21934;-64
2023/02/22 07:20:39;;;;;;;10.45;5.05;;;;;;;-0.44;73.80;100173.86;1737716;82;21175;-63
2023/02/22 07:23:09;;;;;;;8.05;4.28;;;;;;;-0.40;73.87;100182.52;1806124;79;21202;-63
2023/02/22 07:25:37;;;;;;;10.08;4.78;;;;;;;-0.35;73.50;100180.28;1737436;82;21558;-64
2023/02/22 07:28:07;;;;;;;10.00;5.40;;;;;;;-0.37;72.36;100182.25;1805871;79;21151;-64
2023/02/22 07:30:36;;;;;;;8.85;4.28;;;;;;;-0.39;72.71;100183.73;1737612;82;21623;-65
2023/02/22 07:33:10;;;;;;;8.33;4.62;;;;;;;-0.40;71.94;100186.56;1806299;79;21154;-63
2023/02/22 07:35:46;;;;;;;10.05;4.85;;;;;;;-0.45;71.71;100191.48;1717142;82;21551;-63
2023/02/22 07:38:18;;;;;;;14.38;5.62;;;;;;;-0.44;72.12;100192.70;1806277;79;21186;-63
2023/02/22 07:40:47;;;;;;;11.15;5.50;;;;;;;-0.37;72.78;100187.14;1737468;82;21453;-65
2023/02/22 07:43:22;;;;;;;11.73;5.40;;;;;;;-0.32;72.62;100203.75;1806255;79;21115;-63
2023/02/22 07:45:55;;;;;;;9.85;5.12;;;;;;;-0.28;72.65;100202.98;1806049;79;21621;-66
2023/02/22 07:48:26;;;;;;;8.55;4.50;;;;;;;-0.22;72.81;100211.02;1806138;79;21155;-65
2023/02/22 07:50:55;;;;;;;8.93;4.45;;;;;;;-0.16;72.70;100206.45;1737657;82;21560;-63
2023/02/22 07:53:29;;;;;;;9.28;5.05;;;;;;;-0.12;72.47;100204.70;1806176;79;21147;-63
2023/02/22 07:56:00;;;;;;;10.28;4.92;;;;;;;-0.09;72.26;100207.13;1737663;82;21119;-64
2023/02/22 07:58:31;;;;;;;8.65;4.05;;;;;;;-0.07;71.67;100211.03;1806133;79;21123;-64
2023/02/22 08:01:03;;;;;;;12.23;5.00;;;;;;;-0.07;71.19;100208.34;1805989;79;21127;-64
2023/02/22 08:03:35;;;;;;;7.55;4.12;;;;;;;-0.04;70.89;100214.80;1737541;82;21088;-65
2023/02/22 08:06:06;;;;;;;6.90;3.62;;;;;;;-0.02;69.85;100212.83;1806304;79;21178;-63
2023/02/22 08:08:36;;;;;;;8.23;4.42;;;;;;;-0.01;68.81;100217.22;1737661;82;21135;-64
2023/02/22 08:11:07;;;;;;;8.45;4.42;;;;;;;0.04;68.84;100210.13;1806073;79;21188;-65
2023/02/22 08:13:40;;;;;;;8.95;5.30;;;;;;;0.21;68.94;100221.60;1806342;79;21170;-66
2023/02/22 08:16:14;;;;;;;9.85;4.50;;;;;;;0.37;68.58;100214.35;1805859;79;21146;-65
2023/02/22 08:18:43;;;;;;;10.03;5.08;;;;;;;0.53;68.38;100222.27;1737511;82;21640;-64
2023/02/22 08:21:14;;;;;;;8.53;4.30;;;;;;;0.80;68.53;100218.95;1806298;79;21079;-64
2023/02/22 08:23:45;;;;;;;9.88;4.15;;;;;;;1.15;67.29;100231.05;1717696;82;21123;-63
2023/02/22 08:26:17;;;;;;;7.78;3.85;;;;;;;1.36;65.68;100215.59;1749249;79;21587;-64
2023/02/22 08:28:47;;;;;;;10.28;4.75;;;;;;;1.44;64.77;100219.78;1806133;79;21166;-63
2023/02/22 08:31:18;;;;;;;11.95;5.30;;;;;;;1.42;63.69;100227.66;1717617;82;21133;-64
2023/02/22 08:33:49;;;;;;;9.00;4.50;;;;;;;1.46;64.09;100225.88;1806082;79;21150;-62
2023/02/22 08:36:23;;;;;;;12.07;7.22;;;;;;;1.50;63.42;100227.30;1737608;82;21280;-62
2023/02/22 08:38:53;;;;;;;9.93;4.12;;;;;;;1.46;62.99;100223.68;1805991;79;21142;-63
2023/02/22 08:41:23;;;;;;;9.33;4.60;;;;;;;1.29;62.40;100231.97;1737517;82;21179;-64
2023/02/22 08:43:55;;;;;;;11.73;5.30;;;;;;;1.19;63.11;100239.22;1806376;79;21186;-64
2023/02/22 08:46:31;;;;;;;8.60;4.30;;;;;;;1.16;64.27;100239.50;1806055;79;21635;-64
2023/02/22 08:49:02;;;;;;;9.43;4.45;;;;;;;1.20;63.87;100247.17;1737560;82;21558;-64
2023/02/22 08:51:38;;;;;;;8.85;4.15;;;;;;;1.22;63.36;100240.28;1806553;79;21585;-64
2023/02/22 08:54:08;;;;;;;8.40;4.25;;;;;;;1.19;63.24;100245.47;1806338;79;21567;-62
2023/02/22 08:56:38;;;;;;;7.80;4.42;;;;;;;1.13;63.15;100247.37;1737868;82;21107;-62
2023/02/22 08:59:08;;;;;;;6.80;4.40;;;;;;;1.08;62.31;100258.23;1806394;79;21150;-62
2023/02/22 09:01:39;;;;;;;7.80;4.17;;;;;;;0.98;62.20;100247.44;1814770;79;21115;-62
2023/02/22 09:04:08;;;;;;;14.20;4.55;;;;;;;0.94;62.26;100255.45;1814147;79;21103;-66
2023/02/22 09:06:41;;;;;;;6.72;3.72;;;;;;;0.91;61.90;100253.03;1791154;79;21140;-65
2023/02/22 09:09:11;;;;;;;8.80;3.80;;;;;;;0.89;64.34;100255.88;1782151;80;21228;-66
2023/02/22 09:11:40;;;;;;;7.40;3.72;;;;;;;0.92;63.31;100257.44;1752114;80;21126;-64
2023/02/22 09:14:11;;;;;;;6.95;3.52;;;;;;;0.89;62.44;100261.77;1782566;80;21975;-65
2023/02/22 09:16:40;;;;;;;8.63;4.03;;;;;;;0.84;61.40;100254.58;1782285;79;21135;-65
2023/02/22 09:19:11;;;;;;;15.13;4.08;;;;;;;0.79;61.30;100259.55;1782484;80;21146;-63
2023/02/22 09:21:41;;;;;;;7.70;3.75;;;;;;;0.75;61.09;100261.66;1782742;80;21146;-64
2023/02/22 09:24:09;;;;;;;7.87;3.77;;;;;;;0.77;61.98;100258.33;1811439;79;21561;-65
2023/02/22 09:26:38;;;;;;;12.10;4.05;;;;;;;0.78;61.14;100268.13;1814607;79;21110;-65
2023/02/22 09:29:08;;;;;;;9.20;3.62;;;;;;;0.79;60.88;100267.14;1745365;82;21213;-64
2023/02/22 09:31:39;;;;;;;7.00;3.25;;;;;;;0.80;60.43;100267.98;1814524;79;21154;-65
2023/02/22 09:34:12;;;;;;;13.83;4.35;;;;;;;0.76;59.68;100271.45;1814607;79;21182;-66
2023/02/22 09:36:44;;;;;;;8.70;4.00;;;;;;;0.68;59.92;100269.95;1745345;82;21096;-65
2023/02/22 09:39:15;;;;;;;8.10;3.47;;;;;;;0.66;60.18;100273.28;1812455;79;21154;-67
2023/02/22 09:41:55;;;;;;;6.55;3.37;;;;;;;0.64;60.23;100267.98;1782494;80;21151;-66
2023/02/22 09:44:37;;;;;;;13.45;3.60;;;;;;;0.59;58.51;100270.25;1782573;80;21146;-65
2023/02/22 09:47:12;;;;;;;11.12;4.22;;;;;;;0.54;59.19;100273.84;1782487;80;21155;-66
2023/02/22 09:49:56;;;;;;;7.75;4.22;;;;;;;0.57;59.14;100272.72;1782499;80;21534;-67
2023/02/22 09:52:35;;;;;;;12.05;3.83;;;;;;;0.61;59.03;100271.45;1782511;80;21146;-65
2023/02/22 09:55:33;;;;;;;6.10;3.17;;;;;;;0.60;58.69;100270.60;1782579;80;21566;-66
2023/02/22 09:58:20;;;;;;;7.53;3.47;;;;;;;0.57;58.37;100271.37;1687039;85;21226;-66
2023/02/22 10:00:52;;;;;;;16.67;4.60;;;;;;;0.52;58.25;100276.32;1680383;85;21179;-67
2023/02/22 10:03:39;;;;;;;13.03;4.30;;;;;;;0.52;58.25;100264.19;1675112;85;21604;-66
2023/02/22 10:06:11;;;;;;;10.18;3.70;;;;;;;0.53;58.15;100280.72;1674494;85;21591;-64
2023/02/22 10:08:40;;;;;;;8.00;3.80;;;;;;;0.56;58.36;100277.26;1674908;86;21578;-65
2023/02/22 10:11:36;;;;;;;10.95;3.85;;;;;;;0.59;58.14;100273.44;1678633;83;21183;-66
2023/02/22 10:14:35;;;;;;;7.60;3.42;;;;;;;0.61;58.10;100268.27;1687165;84;21273;-65
2023/02/22 10:17:26;;;;;;;6.72;3.02;;;;;;;0.60;57.64;100284.08;1765853;80;21114;-67
2023/02/22 10:20:36;;;;;;;15.15;4.22;;;;;;;0.58;57.73;100277.12;1779530;80;21162;-66
2023/02/22 10:23:23;;;;;;;15.18;4.12;;;;;;;0.55;57.93;100284.98;1779556;80;21182;-66
2023/02/22 10:25:58;;;;;;;9.58;4.35;;;;;;;0.54;58.33;100279.73;1779792;80;21186;-64
2023/02/22 10:28:33;;;;;;;9.15;3.75;;;;;;;0.51;57.75;100286.74;1779345;80;21201;-66
2023/02/22 10:31:06;;;;;;;;;;;;;;;0.48;57.94;100287.87;1782015;80;21554;-64
2023/02/22 10:33:41;;;;;;;6.05;2.98;;;;;;;0.51;57.67;100288.09;1774686;77;20508;-62
2023/02/22 10:36:21;;;;;;;7.55;3.10;;;;;;;0.51;57.58;100288.09;1758315;80;21220;-63
2023/02/22 10:39:04;;;;;;;14.63;4.33;;;;;;;0.52;57.33;100279.02;1731505;81;21576;-61
2023/02/22 10:41:37;;;;;;;8.00;3.67;;;;;;;0.55;57.42;100282.79;1733220;82;21126;-62
2023/02/22 10:44:06;;;;;;;15.08;4.50;;;;;;;0.53;56.93;100276.68;1741845;82;21200;-63
2023/02/22 10:46:36;;;;;;;8.80;3.90;;;;;;;0.53;57.24;100280.23;1691342;82;21150;-62
2023/02/22 10:49:08;;;;;;;8.73;3.60;;;;;;;0.54;56.63;100279.23;1724159;83;21161;-62
2023/02/22 10:51:38;;;;;;;14.80;3.33;;;;;;;0.55;56.72;100272.00;1760153;81;21675;-64
2023/02/22 10:54:37;;;;;;;7.45;3.30;;;;;;;0.56;56.96;100277.75;1760150;81;21210;-64
2023/02/22 10:57:05;;;;;;;;;;;;;;;0.55;56.57;100280.95;1762790;81;21149;-63
2023/02/22 10:59:41;;;;;;;9.05;3.58;;;;;;;0.54;56.36;100271.64;1760004;81;20196;-64
2023/02/22 11:02:32;;;;;;;6.20;4.00;;;;;;;0.49;56.51;100265.81;1760282;80;21576;-64
2023/02/22 11:05:03;;;;;;;6.58;3.42;;;;;;;0.45;56.42;100269.77;1760346;80;21157;-63
2023/02/22 11:07:35;;;;;;;9.40;3.92;;;;;;;0.44;56.33;100274.30;1731956;81;21172;-63
2023/02/22 11:10:08;;;;;;;11.35;4.62;;;;;;;0.47;56.39;100272.69;1731730;81;21118;-62
2023/02/22 11:12:42;;;;;;;6.85;3.60;;;;;;;0.51;56.86;100272.77;1683496;85;21539;-63
2023/02/22 11:15:23;;;;;;;8.23;3.77;;;;;;;0.57;56.89;100280.81;1683337;85;21142;-63
2023/02/22 11:17:54;;;;;;;9.73;4.20;;;;;;;0.55;56.04;100280.09;1683604;85;21123;-63
2023/02/22 11:20:27;;;;;;;23.67;6.10;;;;;;;0.54;56.53;100294.06;1683297;85;21198;-62
2023/02/22 11:22:58;;;;;;;9.78;4.22;;;;;;;0.59;56.86;100286.91;1719907;83;21134;-61
2023/02/22 11:25:34;;;;;;;11.15;3.85;;;;;;;0.62;56.90;100293.38;1683583;85;21155;-62
2023/02/22 11:28:13;;;;;;;7.15;3.87;;;;;;;0.64;56.91;100300.84;1683603;85;21599;-61
2023/02/22 11:30:43;;;;;;;13.35;4.40;;;;;;;0.63;56.83;100295.09;1710191;82;21146;-61
2023/02/22 11:33:25;;;;;;;21.70;4.92;;;;;;;0.60;56.96;100294.87;1724333;82;21146;-63
2023/02/22 11:35:58;;;;;;;13.88;4.97;;;;;;;0.62;57.14;100284.80;1724418;83;21140;-63
2023/02/22 11:38:33;;;;;;;12.13;4.45;;;;;;;0.69;57.58;100286.48;1760212;80;21149;-62
2023/02/22 11:41:24;;;;;;;19.27;4.90;;;;;;;0.75;57.08;100291.82;1760227;80;21129;-63
2023/02/22 11:43:51;;;;;;;14.03;5.28;;;;;;;0.71;57.40;100297.98;1760379;81;21157;-62
2023/02/22 11:46:30;;;;;;;13.40;5.00;;;;;;;0.72;57.05;100301.53;1760342;79;21169;-61
2023/02/22 11:49:03;;;;;;;;;;;;;;;0.76;57.10;100292.17;1762926;80;21149;-61
2023/02/22 11:52:06;;;;;;;8.98;4.10;;;;;;;0.77;56.64;100293.88;1760220;80;20180;-61
2023/02/22 11:55:25;;;;;;;19.35;4.58;;;;;;;0.78;56.80;100295.09;1760071;81;21577;-63
2023/02/22 11:58:18;;;;;;;9.83;4.33;;;;;;;0.76;56.95;100284.09;1757685;80;21153;-61
2023/02/22 12:01:16;;;;;;;14.40;5.20;;;;;;;0.78;56.94;100292.40;1752517;80;21619;-61
2023/02/22 12:03:57;;;;;;;17.62;5.95;;;;;;;0.74;56.96;100295.02;1760145;81;21200;-60
2023/02/22 12:06:47;;;;;;;16.35;5.95;;;;;;;0.78;57.54;100295.09;1760184;81;21338;-61
2023/02/22 12:09:34;;;;;;;12.28;5.08;;;;;;;0.86;58.05;100294.41;1757247;81;21102;-61
2023/02/22 12:12:35;;;;;;;17.35;4.72;;;;;;;0.89;57.36;100295.47;1759991;81;21153;-61